Alyarmouk — 5AWM — position and weather

sailwx.info

Track history (hours):
 
Tides and Currents Weather Stations Pressure Air Temp Water Temp Dewpoint Dewpoint Depression Visibility Wind Speed Wind Dir Waves Ship Positions

Alyarmouk

Last reported at 2018-Apr-20 13:53 UTC. Time now 2018-May-24 23:34 UTC.
Position N 37°52' E 122°24'.
Warning: this ship's position is 34 days out of date.

Length 249 m; draft 7.7 m.

Type: Tanker. MMSI: 642122009.

Date/timePositionNaut miles runAvg speedWind from/ knotsBaromVisibWave heightAir tempDewpointWater temp
2018-Apr-20 13:53N 37°52' E 122°24'410.9
2018-Apr-20 13:30N 37°55' E 122°20'3211.1
2018-Apr-20 10:38N 38°09' E 121°43'1910.5
2018-Apr-20 08:50N 38°20' E 121°23'410.1
2018-Apr-20 08:26N 38°21' E 121°19'15 9.1
2018-Apr-20 06:47N 38°29' E 121°02'3 8.9
2018-Apr-20 06:29N 38°30' E 120°59'17 8.7
2018-Apr-20 04:31N 38°33' E 120°38'110.2
2018-Apr-20 04:25N 38°33' E 120°37'18 6.1
2018-Apr-20 01:27N 38°19' E 120°21'0 0.0
2018-Apr-19 23:42N 38°20' E 120°21'0 0.1
2018-Apr-19 23:15N 38°20' E 120°21'0 0.2
2018-Apr-19 22:57N 38°20' E 120°21'0 0.0
2018-Apr-19 22:27N 38°20' E 120°21'0 0.1
2018-Apr-19 22:00N 38°20' E 120°21'0 0.1
2018-Apr-19 21:09N 38°20' E 120°21'0 0.0
2018-Apr-19 20:51N 38°20' E 120°21'0 0.0
2018-Apr-19 20:24N 38°20' E 120°21'0 0.1
2018-Apr-19 19:51N 38°20' E 120°20'0 0.1
2018-Apr-19 19:30N 38°20' E 120°21'0 0.0
2018-Apr-17 22:00N 38°20' E 120°21'0 0.0
2018-Apr-17 21:30N 38°20' E 120°21'0 0.0
2018-Apr-17 20:54N 38°20' E 120°21'0 0.1
2018-Apr-17 20:27N 38°20' E 120°21'0 0.0
2018-Apr-17 20:00N 38°20' E 120°21'0 0.0
2018-Apr-17 19:21N 38°20' E 120°21'0 0.0
2018-Apr-17 16:21N 38°20' E 120°21'0 0.0
2018-Apr-17 15:51N 38°20' E 120°21'0 0.0
2018-Apr-17 10:30N 38°20' E 120°21'0 0.2
2018-Apr-17 10:00N 38°20' E 120°21'0 0.0
2018-Apr-16 22:45N 38°20' E 120°21'0 0.0
2018-Apr-16 22:30N 38°20' E 120°21'0 0.0
2018-Apr-16 22:00N 38°20' E 120°21'0 0.0
2018-Apr-16 21:30N 38°20' E 120°21'0 0.0
2018-Apr-16 20:54N 38°20' E 120°21'0 0.1
2018-Apr-16 20:30N 38°20' E 120°21'0 0.0
2018-Apr-16 20:00N 38°20' E 120°21'0 0.0
2018-Apr-16 19:30N 38°20' E 120°21'0 0.0
2018-Apr-16 19:00N 38°20' E 120°21'0 0.1
2018-Apr-16 18:27N 38°20' E 120°21'0 0.0
2018-Apr-16 17:57N 38°20' E 120°21'0 0.1
2018-Apr-16 17:30N 38°20' E 120°21'0 0.0
2018-Apr-16 17:00N 38°20' E 120°21'0 0.0
2018-Apr-16 16:30N 38°20' E 120°21'0 0.0
2018-Apr-16 16:00N 38°20' E 120°21'0 0.0
2018-Apr-16 15:30N 38°20' E 120°21'1 0.1
2018-Apr-16 09:20N 38°19' E 120°20'4 8.3
2018-Apr-16 08:49N 38°15' E 120°19'412.2
2018-Apr-16 08:31N 38°11' E 120°18'612.3
2018-Apr-16 08:00N 38°05' E 120°16'611.5
2018-Apr-16 07:31N 37°60' E 120°13'612.1
2018-Apr-16 07:00N 37°54' E 120°12'511.0
2018-Apr-16 06:31N 37°49' E 120°11'3 6.9
2018-Apr-16 06:00N 37°45' E 120°09'3 5.4
2018-Apr-16 05:31N 37°43' E 120°08'1 1.1
2018-Apr-16 04:59N 37°42' E 120°08'0 0.0
2018-Apr-16 03:05N 37°42' E 120°08'0 0.0
2018-Apr-16 02:59N 37°42' E 120°08'0 0.1
2018-Apr-16 02:23N 37°42' E 120°08'0 0.2
2018-Apr-16 01:59N 37°42' E 120°08'0 0.1
2018-Apr-16 00:59N 37°42' E 120°08'0 0.0
2018-Apr-16 00:26N 37°42' E 120°08'0 0.0
2018-Apr-15 23:59N 37°42' E 120°08'0 0.0
2018-Apr-15 23:29N 37°42' E 120°08'0 0.0
2018-Apr-15 22:44N 37°42' E 120°08'0 0.0
2018-Apr-15 22:29N 37°42' E 120°08'0 0.0
2018-Apr-15 21:59N 37°42' E 120°08'0 0.0
2018-Apr-15 21:23N 37°42' E 120°08'0 0.0
2018-Apr-15 20:59N 37°42' E 120°08'0 0.0
2018-Apr-15 20:29N 37°42' E 120°08'0 0.0
2018-Apr-15 19:59N 37°42' E 120°08'0 0.1
2018-Apr-15 19:29N 37°42' E 120°08'0 0.0
2018-Apr-15 18:59N 37°42' E 120°08'0 0.0
2018-Apr-15 18:29N 37°42' E 120°08'0 0.0
2018-Apr-15 17:59N 37°42' E 120°08'0 0.2
2018-Apr-15 17:29N 37°42' E 120°08'0 0.2
2018-Apr-15 16:59N 37°42' E 120°08'0 0.1
2018-Apr-15 16:29N 37°42' E 120°08'0 0.0
2018-Apr-15 15:59N 37°42' E 120°08'0 0.0
2018-Apr-15 15:29N 37°42' E 120°08'0 0.0
2018-Apr-15 14:59N 37°42' E 120°08'0 0.0
2018-Apr-15 14:29N 37°42' E 120°08'0 0.1
2018-Apr-15 13:56N 37°42' E 120°08'0 0.0
2018-Apr-15 13:29N 37°42' E 120°08'0 0.0
2018-Apr-15 12:59N 37°42' E 120°08'0 0.0
2018-Apr-15 12:29N 37°42' E 120°08'0 0.1
2018-Apr-15 11:53N 37°42' E 120°08'0 0.1
2018-Apr-15 11:17N 37°42' E 120°08'0 0.3
2018-Apr-15 10:59N 37°42' E 120°08'0 0.2
2018-Apr-15 10:29N 37°42' E 120°08'0 0.1
2018-Apr-15 09:56N 37°42' E 120°08'0 0.0
2018-Apr-15 09:23N 37°42' E 120°08'0 0.0
2018-Apr-15 08:59N 37°42' E 120°08'0 0.0
2018-Apr-15 08:29N 37°42' E 120°08'0 0.1
2018-Apr-15 07:59N 37°42' E 120°08'0 0.2
2018-Apr-15 07:29N 37°42' E 120°08'0 0.2
2018-Apr-15 06:59N 37°42' E 120°08'0 0.1
2018-Apr-15 06:29N 37°42' E 120°08'0 0.1
2018-Apr-15 05:59N 37°42' E 120°08'0 0.1
2018-Apr-15 05:29N 37°42' E 120°08'0 0.0
2018-Apr-15 04:53N 37°42' E 120°08'0 0.0
2018-Apr-15 04:23N 37°42' E 120°08'0 0.0
2018-Apr-15 03:59N 37°42' E 120°08'0 0.0
2018-Apr-15 03:29N 37°42' E 120°08'0 0.0
2018-Apr-15 02:59N 37°42' E 120°08'0 0.0
2018-Apr-15 02:29N 37°42' E 120°08'0 0.0
2018-Apr-15 01:59N 37°42' E 120°08'0 0.1
2018-Apr-15 01:17N 37°42' E 120°08'0 0.0
2018-Apr-15 00:53N 37°42' E 120°08'0 0.1
2018-Apr-15 00:23N 37°42' E 120°08'0 0.0
2018-Apr-14 23:59N 37°42' E 120°08'0 0.1
2018-Apr-14 23:23N 37°42' E 120°08'0 0.1
2018-Apr-14 22:17N 37°42' E 120°08'0 0.0
2018-Apr-14 21:59N 37°42' E 120°08'0 0.0
2018-Apr-14 21:14N 37°42' E 120°08'0 0.0
2018-Apr-14 20:59N 37°42' E 120°08'0 0.0
2018-Apr-14 20:29N 37°42' E 120°08'0 0.0
2018-Apr-14 19:59N 37°42' E 120°08'0 0.0
2018-Apr-14 19:29N 37°42' E 120°08'0 0.0
2018-Apr-14 18:59N 37°42' E 120°08'0 0.0
2018-Apr-14 18:29N 37°42' E 120°08'0 0.2
2018-Apr-14 17:56N 37°42' E 120°08'0 0.1
2018-Apr-14 17:26N 37°42' E 120°08'0 0.0
2018-Apr-14 16:59N 37°42' E 120°08'0 0.0
2018-Apr-14 16:29N 37°42' E 120°08'0 0.1
2018-Apr-14 15:59N 37°42' E 120°08'0 0.0
2018-Apr-14 15:29N 37°42' E 120°08'0 0.0
2018-Apr-14 14:59N 37°42' E 120°08'0 0.0
2018-Apr-14 14:29N 37°42' E 120°08'0 0.0
2018-Apr-14 13:59N 37°42' E 120°08'0 0.0
2018-Apr-14 13:23N 37°42' E 120°08'0 0.0
2018-Apr-14 12:59N 37°42' E 120°08'0 0.0
2018-Apr-14 12:29N 37°42' E 120°08'0 0.0
2018-Apr-14 11:59N 37°42' E 120°08'0 0.0
2018-Apr-14 11:29N 37°42' E 120°08'0 0.0
2018-Apr-14 10:59N 37°42' E 120°08'0 0.1
2018-Apr-14 10:29N 37°42' E 120°09'0 0.0
2018-Apr-14 09:59N 37°42' E 120°09'0 0.0
2018-Apr-14 09:29N 37°42' E 120°09'0 0.0
2018-Apr-14 08:59N 37°42' E 120°09'0 0.0
2018-Apr-14 08:29N 37°42' E 120°09'0 0.0
2018-Apr-14 07:59N 37°42' E 120°09'0 0.0
2018-Apr-14 07:29N 37°42' E 120°09'0 0.1
2018-Apr-14 06:59N 37°42' E 120°08'0 0.0
2018-Apr-14 04:38N 37°42' E 120°08'0 0.0
2018-Apr-14 04:23N 37°42' E 120°08'0 0.0
2018-Apr-14 03:23N 37°42' E 120°08'0 0.0
2018-Apr-14 02:50N 37°42' E 120°08'0 0.3
2018-Apr-14 02:29N 37°42' E 120°08'0 0.1
2018-Apr-14 01:56N 37°42' E 120°08'0 0.1
2018-Apr-14 01:29N 37°42' E 120°08'0 0.0
2018-Apr-14 00:59N 37°42' E 120°08'0 0.0
2018-Apr-14 00:29N 37°42' E 120°08'0 0.0
2018-Apr-13 23:59N 37°42' E 120°08'0 0.0
2018-Apr-13 23:29N 37°42' E 120°08'0 0.0
2018-Apr-13 22:59N 37°42' E 120°08'0 0.1
2018-Apr-13 22:17N 37°42' E 120°08'0 0.0
2018-Apr-13 21:59N 37°42' E 120°08'0 0.0
2018-Apr-13 21:05N 37°42' E 120°08'0 0.2
2018-Apr-13 20:53N 37°42' E 120°08'0 0.2
2018-Apr-13 20:17N 37°42' E 120°08'0 0.0
2018-Apr-13 19:56N 37°42' E 120°08'0 0.1
2018-Apr-13 19:29N 37°42' E 120°08'0 0.0
2018-Apr-13 18:59N 37°42' E 120°08'0 0.0
2018-Apr-13 18:29N 37°42' E 120°08'0 0.0
2018-Apr-13 17:59N 37°42' E 120°08'0 0.0
2018-Apr-13 17:23N 37°42' E 120°08'0 0.1
2018-Apr-13 16:59N 37°42' E 120°08'0 0.0
2018-Apr-13 16:29N 37°42' E 120°08'0 0.1
2018-Apr-13 15:53N 37°42' E 120°08'0 0.1
2018-Apr-13 15:29N 37°42' E 120°08'0 0.1
2018-Apr-13 14:44N 37°42' E 120°08'0 0.2
2018-Apr-13 14:29N 37°42' E 120°08'0 0.1
2018-Apr-13 13:59N 37°42' E 120°08'0 0.0
2018-Apr-13 13:29N 37°42' E 120°08'0 0.1
2018-Apr-13 12:59N 37°42' E 120°08'0 0.1
2018-Apr-13 12:29N 37°42' E 120°08'0 0.1
2018-Apr-13 11:59N 37°42' E 120°08'0 0.1
2018-Apr-13 11:08N 37°42' E 120°08'0 0.2
2018-Apr-13 10:59N 37°42' E 120°08'0 0.0
2018-Apr-13 10:29N 37°42' E 120°08'0 0.0
2018-Apr-13 09:59N 37°42' E 120°08'0 0.0
2018-Apr-13 09:29N 37°42' E 120°08'0 0.1
2018-Apr-13 08:59N 37°42' E 120°08'0 0.3
2018-Apr-13 08:29N 37°42' E 120°08'0 0.2
2018-Apr-13 07:59N 37°42' E 120°08'0 0.1
2018-Apr-13 07:26N 37°42' E 120°08'0 0.0
2018-Apr-13 06:17N 37°42' E 120°08'0 0.2
2018-Apr-13 05:59N 37°42' E 120°08'0 0.1
2018-Apr-13 05:26N 37°42' E 120°08'0 0.2
2018-Apr-13 04:56N 37°42' E 120°08'0 0.1
2018-Apr-13 04:26N 37°42' E 120°08'0 0.1
2018-Apr-13 03:59N 37°42' E 120°08'0 0.1
2018-Apr-13 03:29N 37°42' E 120°08'0 0.1
2018-Apr-13 02:59N 37°42' E 120°08'0 0.0
2018-Apr-13 02:29N 37°42' E 120°08'0 0.1
2018-Apr-13 01:59N 37°42' E 120°08'0 0.0
2018-Apr-13 01:29N 37°42' E 120°08'0 0.0
2018-Apr-13 00:47N 37°42' E 120°08'0 0.1
2018-Apr-13 00:29N 37°42' E 120°08'0 0.0
2018-Apr-12 23:59N 37°42' E 120°08'0 0.1
2018-Apr-12 23:29N 37°42' E 120°08'0 0.0
2018-Apr-12 22:56N 37°42' E 120°08'0 0.0
2018-Apr-12 22:29N 37°42' E 120°08'0 0.1
2018-Apr-12 21:59N 37°42' E 120°08'0 0.2
2018-Apr-12 21:29N 37°42' E 120°08'0 0.2
2018-Apr-12 20:53N 37°42' E 120°08'0 0.1
2018-Apr-12 20:29N 37°42' E 120°08'0 0.0
2018-Apr-12 19:35N 37°42' E 120°08'0 0.0
2018-Apr-12 19:29N 37°42' E 120°08'0 0.1
2018-Apr-12 18:59N 37°42' E 120°08'0 0.0
2018-Apr-12 18:29N 37°42' E 120°08'0 0.0
2018-Apr-12 17:56N 37°42' E 120°08'0 0.2
2018-Apr-12 17:23N 37°42' E 120°08'0 0.0
2018-Apr-12 16:59N 37°42' E 120°08'0 0.0
2018-Apr-12 16:29N 37°42' E 120°08'0 0.1
2018-Apr-12 15:59N 37°42' E 120°08'0 0.0
2018-Apr-12 15:29N 37°42' E 120°08'0 0.0
2018-Apr-12 14:59N 37°42' E 120°08'0 0.1
2018-Apr-12 14:29N 37°42' E 120°08'0 0.1
2018-Apr-12 13:59N 37°42' E 120°08'0 0.1
2018-Apr-12 13:17N 37°42' E 120°08'0 0.0
2018-Apr-12 12:59N 37°42' E 120°08'0 0.0
2018-Apr-12 10:56N 37°42' E 120°08'0 0.0
2018-Apr-12 10:29N 37°42' E 120°08'0 0.0
2018-Apr-12 09:47N 37°42' E 120°08'0 0.0
2018-Apr-12 09:23N 37°42' E 120°08'0 0.0
2018-Apr-12 08:59N 37°42' E 120°08'0 0.0
2018-Apr-12 08:29N 37°42' E 120°08'0 0.0
2018-Apr-12 07:53N 37°42' E 120°08'0 0.0
2018-Apr-12 07:29N 37°42' E 120°08'0 0.0
2018-Apr-12 06:59N 37°42' E 120°08'0 0.0
2018-Apr-12 06:29N 37°42' E 120°08'0 0.0
2018-Apr-12 05:47N 37°42' E 120°08'0 0.0
2018-Apr-12 05:29N 37°42' E 120°08'0 0.0
2018-Apr-12 04:59N 37°42' E 120°08'0 0.0
2018-Apr-12 04:28N 37°42' E 120°08'0 0.0
2018-Apr-12 03:58N 37°42' E 120°08'0 0.2
2018-Apr-12 03:28N 37°42' E 120°08'0 0.0
2018-Apr-12 02:46N 37°42' E 120°08'0 0.1
2018-Apr-12 02:28N 37°42' E 120°08'0 0.0
2018-Apr-12 01:10N 37°42' E 120°08'0 0.1
2018-Apr-12 00:52N 37°42' E 120°08'0 0.0
2018-Apr-12 00:22N 37°42' E 120°08'0 0.1
2018-Apr-11 23:58N 37°42' E 120°08'0 0.0
2018-Apr-11 23:22N 37°42' E 120°08'0 0.0
2018-Apr-11 22:52N 37°42' E 120°08'0 0.1
2018-Apr-11 22:28N 37°42' E 120°08'0 0.1
2018-Apr-11 21:55N 37°42' E 120°08'0 0.1
2018-Apr-11 21:28N 37°42' E 120°08'0 0.5
2018-Apr-11 20:58N 37°43' E 120°08'0 0.0
2018-Apr-11 20:28N 37°43' E 120°08'0 0.0
2018-Apr-11 19:58N 37°43' E 120°08'0 0.0
2018-Apr-11 19:28N 37°43' E 120°08'0 0.0
2018-Apr-11 18:58N 37°43' E 120°08'0 0.0
2018-Apr-11 18:28N 37°43' E 120°08'0 0.0
2018-Apr-11 17:58N 37°43' E 120°08'0 0.0
2018-Apr-11 17:28N 37°43' E 120°08'0 0.0
2018-Apr-11 16:46N 37°43' E 120°08'0 0.0
2018-Apr-11 16:28N 37°43' E 120°08'0 0.0
2018-Apr-11 15:52N 37°43' E 120°08'0 0.1
2018-Apr-11 15:25N 37°43' E 120°08'0 0.0
2018-Apr-11 14:58N 37°43' E 120°08'0 0.0
2018-Apr-11 14:28N 37°43' E 120°08'0 0.0
2018-Apr-11 13:58N 37°42' E 120°08'0 0.0
2018-Apr-11 13:28N 37°42' E 120°08'0 0.0
2018-Apr-11 12:58N 37°42' E 120°08'0 0.0
2018-Apr-11 12:19N 37°43' E 120°08'0 0.1
2018-Apr-11 11:58N 37°43' E 120°08'0 0.0
2018-Apr-11 11:28N 37°43' E 120°08'0 0.2
2018-Apr-11 10:52N 37°42' E 120°08'0 0.0
2018-Apr-11 09:10N 37°42' E 120°08'0 0.0
2018-Apr-11 08:04N 37°42' E 120°08'0 0.0
2018-Apr-11 07:52N 37°42' E 120°08'0 0.0
2018-Apr-11 07:16N 37°42' E 120°08'0 0.0
2018-Apr-11 06:55N 37°42' E 120°08'0 0.0
2018-Apr-11 06:28N 37°42' E 120°08'0 0.0
2018-Apr-11 05:58N 37°42' E 120°08'0 0.1
2018-Apr-11 05:16N 37°42' E 120°09'0 0.2
2018-Apr-11 04:58N 37°42' E 120°08'0 0.0
2018-Apr-11 04:28N 37°42' E 120°08'0 0.0
2018-Apr-11 03:58N 37°42' E 120°08'0 0.2
2018-Apr-11 03:30N 37°42' E 120°09'3 6.1
2018-Apr-11 02:59N 37°40' E 120°12'4 8.6
2018-Apr-11 02:31N 37°38' E 120°16'2 0.7
2018-Apr-11 00:10N 37°39' E 120°18'0 0.0
2018-Apr-10 23:55N 37°39' E 120°18'0 0.0
2018-Apr-10 23:25N 37°39' E 120°18'  
Track history (hours):
 
Tides and Currents Weather Stations Pressure Air Temp Water Temp Dewpoint Dewpoint Depression Visibility Wind Speed Wind Dir Waves Ship Positions

Alyarmouk

Last reported at 2018-Apr-20 13:53 UTC. Time now 2018-May-24 23:34 UTC.
Position N 37°52' E 122°24'.
Warning: this ship's position is 34 days out of date.

Length 249 m; draft 7.7 m.

Type: Tanker. MMSI: 642122009.

Date/timePositionNaut miles runAvg speedWind from/ knotsBaromVisibWave heightAir tempDewpointWater temp
2018-Apr-20 13:53N 37°52' E 122°24'410.9
2018-Apr-20 13:30N 37°55' E 122°20'3211.1
2018-Apr-20 10:38N 38°09' E 121°43'1910.5
2018-Apr-20 08:50N 38°20' E 121°23'410.1
2018-Apr-20 08:26N 38°21' E 121°19'15 9.1
2018-Apr-20 06:47N 38°29' E 121°02'3 8.9
2018-Apr-20 06:29N 38°30' E 120°59'17 8.7
2018-Apr-20 04:31N 38°33' E 120°38'110.2
2018-Apr-20 04:25N 38°33' E 120°37'18 6.1
2018-Apr-20 01:27N 38°19' E 120°21'0 0.0
2018-Apr-19 23:42N 38°20' E 120°21'0 0.1
2018-Apr-19 23:15N 38°20' E 120°21'0 0.2
2018-Apr-19 22:57N 38°20' E 120°21'0 0.0
2018-Apr-19 22:27N 38°20' E 120°21'0 0.1
2018-Apr-19 22:00N 38°20' E 120°21'0 0.1
2018-Apr-19 21:09N 38°20' E 120°21'0 0.0
2018-Apr-19 20:51N 38°20' E 120°21'0 0.0
2018-Apr-19 20:24N 38°20' E 120°21'0 0.1
2018-Apr-19 19:51N 38°20' E 120°20'0 0.1
2018-Apr-19 19:30N 38°20' E 120°21'0 0.0
2018-Apr-17 22:00N 38°20' E 120°21'0 0.0
2018-Apr-17 21:30N 38°20' E 120°21'0 0.0
2018-Apr-17 20:54N 38°20' E 120°21'0 0.1
2018-Apr-17 20:27N 38°20' E 120°21'0 0.0
2018-Apr-17 20:00N 38°20' E 120°21'0 0.0
2018-Apr-17 19:21N 38°20' E 120°21'0 0.0
2018-Apr-17 16:21N 38°20' E 120°21'0 0.0
2018-Apr-17 15:51N 38°20' E 120°21'0 0.0
2018-Apr-17 10:30N 38°20' E 120°21'0 0.2
2018-Apr-17 10:00N 38°20' E 120°21'0 0.0
2018-Apr-16 22:45N 38°20' E 120°21'0 0.0
2018-Apr-16 22:30N 38°20' E 120°21'0 0.0
2018-Apr-16 22:00N 38°20' E 120°21'0 0.0
2018-Apr-16 21:30N 38°20' E 120°21'0 0.0
2018-Apr-16 20:54N 38°20' E 120°21'0 0.1
2018-Apr-16 20:30N 38°20' E 120°21'0 0.0
2018-Apr-16 20:00N 38°20' E 120°21'0 0.0
2018-Apr-16 19:30N 38°20' E 120°21'0 0.0
2018-Apr-16 19:00N 38°20' E 120°21'0 0.1
2018-Apr-16 18:27N 38°20' E 120°21'0 0.0
2018-Apr-16 17:57N 38°20' E 120°21'0 0.1
2018-Apr-16 17:30N 38°20' E 120°21'0 0.0
2018-Apr-16 17:00N 38°20' E 120°21'0 0.0
2018-Apr-16 16:30N 38°20' E 120°21'0 0.0
2018-Apr-16 16:00N 38°20' E 120°21'0 0.0
2018-Apr-16 15:30N 38°20' E 120°21'1 0.1
2018-Apr-16 09:20N 38°19' E 120°20'4 8.3
2018-Apr-16 08:49N 38°15' E 120°19'412.2
2018-Apr-16 08:31N 38°11' E 120°18'612.3
2018-Apr-16 08:00N 38°05' E 120°16'611.5
2018-Apr-16 07:31N 37°60' E 120°13'612.1
2018-Apr-16 07:00N 37°54' E 120°12'511.0
2018-Apr-16 06:31N 37°49' E 120°11'3 6.9
2018-Apr-16 06:00N 37°45' E 120°09'3 5.4
2018-Apr-16 05:31N 37°43' E 120°08'1 1.1
2018-Apr-16 04:59N 37°42' E 120°08'0 0.0
2018-Apr-16 03:05N 37°42' E 120°08'0 0.0
2018-Apr-16 02:59N 37°42' E 120°08'0 0.1
2018-Apr-16 02:23N 37°42' E 120°08'0 0.2
2018-Apr-16 01:59N 37°42' E 120°08'0 0.1
2018-Apr-16 00:59N 37°42' E 120°08'0 0.0
2018-Apr-16 00:26N 37°42' E 120°08'0 0.0
2018-Apr-15 23:59N 37°42' E 120°08'0 0.0
2018-Apr-15 23:29N 37°42' E 120°08'0 0.0
2018-Apr-15 22:44N 37°42' E 120°08'0 0.0
2018-Apr-15 22:29N 37°42' E 120°08'0 0.0
2018-Apr-15 21:59N 37°42' E 120°08'0 0.0
2018-Apr-15 21:23N 37°42' E 120°08'0 0.0
2018-Apr-15 20:59N 37°42' E 120°08'0 0.0
2018-Apr-15 20:29N 37°42' E 120°08'0 0.0
2018-Apr-15 19:59N 37°42' E 120°08'0 0.1
2018-Apr-15 19:29N 37°42' E 120°08'0 0.0
2018-Apr-15 18:59N 37°42' E 120°08'0 0.0
2018-Apr-15 18:29N 37°42' E 120°08'0 0.0
2018-Apr-15 17:59N 37°42' E 120°08'0 0.2
2018-Apr-15 17:29N 37°42' E 120°08'0 0.2
2018-Apr-15 16:59N 37°42' E 120°08'0 0.1
2018-Apr-15 16:29N 37°42' E 120°08'0 0.0
2018-Apr-15 15:59N 37°42' E 120°08'0 0.0
2018-Apr-15 15:29N 37°42' E 120°08'0 0.0
2018-Apr-15 14:59N 37°42' E 120°08'0 0.0
2018-Apr-15 14:29N 37°42' E 120°08'0 0.1
2018-Apr-15 13:56N 37°42' E 120°08'0 0.0
2018-Apr-15 13:29N 37°42' E 120°08'0 0.0
2018-Apr-15 12:59N 37°42' E 120°08'0 0.0
2018-Apr-15 12:29N 37°42' E 120°08'0 0.1
2018-Apr-15 11:53N 37°42' E 120°08'0 0.1
2018-Apr-15 11:17N 37°42' E 120°08'0 0.3
2018-Apr-15 10:59N 37°42' E 120°08'0 0.2
2018-Apr-15 10:29N 37°42' E 120°08'0 0.1
2018-Apr-15 09:56N 37°42' E 120°08'0 0.0
2018-Apr-15 09:23N 37°42' E 120°08'0 0.0
2018-Apr-15 08:59N 37°42' E 120°08'0 0.0
2018-Apr-15 08:29N 37°42' E 120°08'0 0.1
2018-Apr-15 07:59N 37°42' E 120°08'0 0.2
2018-Apr-15 07:29N 37°42' E 120°08'0 0.2
2018-Apr-15 06:59N 37°42' E 120°08'0 0.1
2018-Apr-15 06:29N 37°42' E 120°08'0 0.1
2018-Apr-15 05:59N 37°42' E 120°08'0 0.1
2018-Apr-15 05:29N 37°42' E 120°08'0 0.0
2018-Apr-15 04:53N 37°42' E 120°08'0 0.0
2018-Apr-15 04:23N 37°42' E 120°08'0 0.0
2018-Apr-15 03:59N 37°42' E 120°08'0 0.0
2018-Apr-15 03:29N 37°42' E 120°08'0 0.0
2018-Apr-15 02:59N 37°42' E 120°08'0 0.0
2018-Apr-15 02:29N 37°42' E 120°08'0 0.0
2018-Apr-15 01:59N 37°42' E 120°08'0 0.1
2018-Apr-15 01:17N 37°42' E 120°08'0 0.0
2018-Apr-15 00:53N 37°42' E 120°08'0 0.1
2018-Apr-15 00:23N 37°42' E 120°08'0 0.0
2018-Apr-14 23:59N 37°42' E 120°08'0 0.1
2018-Apr-14 23:23N 37°42' E 120°08'0 0.1
2018-Apr-14 22:17N 37°42' E 120°08'0 0.0
2018-Apr-14 21:59N 37°42' E 120°08'0 0.0
2018-Apr-14 21:14N 37°42' E 120°08'0 0.0
2018-Apr-14 20:59N 37°42' E 120°08'0 0.0
2018-Apr-14 20:29N 37°42' E 120°08'0 0.0
2018-Apr-14 19:59N 37°42' E 120°08'0 0.0
2018-Apr-14 19:29N 37°42' E 120°08'0 0.0
2018-Apr-14 18:59N 37°42' E 120°08'0 0.0
2018-Apr-14 18:29N 37°42' E 120°08'0 0.2
2018-Apr-14 17:56N 37°42' E 120°08'0 0.1
2018-Apr-14 17:26N 37°42' E 120°08'0 0.0
2018-Apr-14 16:59N 37°42' E 120°08'0 0.0
2018-Apr-14 16:29N 37°42' E 120°08'0 0.1
2018-Apr-14 15:59N 37°42' E 120°08'0 0.0
2018-Apr-14 15:29N 37°42' E 120°08'0 0.0
2018-Apr-14 14:59N 37°42' E 120°08'0 0.0
2018-Apr-14 14:29N 37°42' E 120°08'0 0.0
2018-Apr-14 13:59N 37°42' E 120°08'0 0.0
2018-Apr-14 13:23N 37°42' E 120°08'0 0.0
2018-Apr-14 12:59N 37°42' E 120°08'0 0.0
2018-Apr-14 12:29N 37°42' E 120°08'0 0.0
2018-Apr-14 11:59N 37°42' E 120°08'0 0.0
2018-Apr-14 11:29N 37°42' E 120°08'0 0.0
2018-Apr-14 10:59N 37°42' E 120°08'0 0.1
2018-Apr-14 10:29N 37°42' E 120°09'0 0.0
2018-Apr-14 09:59N 37°42' E 120°09'0 0.0
2018-Apr-14 09:29N 37°42' E 120°09'0 0.0
2018-Apr-14 08:59N 37°42' E 120°09'0 0.0
2018-Apr-14 08:29N 37°42' E 120°09'0 0.0
2018-Apr-14 07:59N 37°42' E 120°09'0 0.0
2018-Apr-14 07:29N 37°42' E 120°09'0 0.1
2018-Apr-14 06:59N 37°42' E 120°08'0 0.0
2018-Apr-14 04:38N 37°42' E 120°08'0 0.0
2018-Apr-14 04:23N 37°42' E 120°08'0 0.0
2018-Apr-14 03:23N 37°42' E 120°08'0 0.0
2018-Apr-14 02:50N 37°42' E 120°08'0 0.3
2018-Apr-14 02:29N 37°42' E 120°08'0 0.1
2018-Apr-14 01:56N 37°42' E 120°08'0 0.1
2018-Apr-14 01:29N 37°42' E 120°08'0 0.0
2018-Apr-14 00:59N 37°42' E 120°08'0 0.0
2018-Apr-14 00:29N 37°42' E 120°08'0 0.0
2018-Apr-13 23:59N 37°42' E 120°08'0 0.0
2018-Apr-13 23:29N 37°42' E 120°08'0 0.0
2018-Apr-13 22:59N 37°42' E 120°08'0 0.1
2018-Apr-13 22:17N 37°42' E 120°08'0 0.0
2018-Apr-13 21:59N 37°42' E 120°08'0 0.0
2018-Apr-13 21:05N 37°42' E 120°08'0 0.2
2018-Apr-13 20:53N 37°42' E 120°08'0 0.2
2018-Apr-13 20:17N 37°42' E 120°08'0 0.0
2018-Apr-13 19:56N 37°42' E 120°08'0 0.1
2018-Apr-13 19:29N 37°42' E 120°08'0 0.0
2018-Apr-13 18:59N 37°42' E 120°08'0 0.0
2018-Apr-13 18:29N 37°42' E 120°08'0 0.0
2018-Apr-13 17:59N 37°42' E 120°08'0 0.0
2018-Apr-13 17:23N 37°42' E 120°08'0 0.1
2018-Apr-13 16:59N 37°42' E 120°08'0 0.0
2018-Apr-13 16:29N 37°42' E 120°08'0 0.1
2018-Apr-13 15:53N 37°42' E 120°08'0 0.1
2018-Apr-13 15:29N 37°42' E 120°08'0 0.1
2018-Apr-13 14:44N 37°42' E 120°08'0 0.2
2018-Apr-13 14:29N 37°42' E 120°08'0 0.1
2018-Apr-13 13:59N 37°42' E 120°08'0 0.0
2018-Apr-13 13:29N 37°42' E 120°08'0 0.1
2018-Apr-13 12:59N 37°42' E 120°08'0 0.1
2018-Apr-13 12:29N 37°42' E 120°08'0 0.1
2018-Apr-13 11:59N 37°42' E 120°08'0 0.1
2018-Apr-13 11:08N 37°42' E 120°08'0 0.2
2018-Apr-13 10:59N 37°42' E 120°08'0 0.0
2018-Apr-13 10:29N 37°42' E 120°08'0 0.0
2018-Apr-13 09:59N 37°42' E 120°08'0 0.0
2018-Apr-13 09:29N 37°42' E 120°08'0 0.1
2018-Apr-13 08:59N 37°42' E 120°08'0 0.3
2018-Apr-13 08:29N 37°42' E 120°08'0 0.2
2018-Apr-13 07:59N 37°42' E 120°08'0 0.1
2018-Apr-13 07:26N 37°42' E 120°08'0 0.0
2018-Apr-13 06:17N 37°42' E 120°08'0 0.2
2018-Apr-13 05:59N 37°42' E 120°08'0 0.1
2018-Apr-13 05:26N 37°42' E 120°08'0 0.2
2018-Apr-13 04:56N 37°42' E 120°08'0 0.1
2018-Apr-13 04:26N 37°42' E 120°08'0 0.1
2018-Apr-13 03:59N 37°42' E 120°08'0 0.1
2018-Apr-13 03:29N 37°42' E 120°08'0 0.1
2018-Apr-13 02:59N 37°42' E 120°08'0 0.0
2018-Apr-13 02:29N 37°42' E 120°08'0 0.1
2018-Apr-13 01:59N 37°42' E 120°08'0 0.0
2018-Apr-13 01:29N 37°42' E 120°08'0 0.0
2018-Apr-13 00:47N 37°42' E 120°08'0 0.1
2018-Apr-13 00:29N 37°42' E 120°08'0 0.0
2018-Apr-12 23:59N 37°42' E 120°08'0 0.1
2018-Apr-12 23:29N 37°42' E 120°08'0 0.0
2018-Apr-12 22:56N 37°42' E 120°08'0 0.0
2018-Apr-12 22:29N 37°42' E 120°08'0 0.1
2018-Apr-12 21:59N 37°42' E 120°08'0 0.2
2018-Apr-12 21:29N 37°42' E 120°08'0 0.2
2018-Apr-12 20:53N 37°42' E 120°08'0 0.1
2018-Apr-12 20:29N 37°42' E 120°08'0 0.0
2018-Apr-12 19:35N 37°42' E 120°08'0 0.0
2018-Apr-12 19:29N 37°42' E 120°08'0 0.1
2018-Apr-12 18:59N 37°42' E 120°08'0 0.0
2018-Apr-12 18:29N 37°42' E 120°08'0 0.0
2018-Apr-12 17:56N 37°42' E 120°08'0 0.2
2018-Apr-12 17:23N 37°42' E 120°08'0 0.0
2018-Apr-12 16:59N 37°42' E 120°08'0 0.0
2018-Apr-12 16:29N 37°42' E 120°08'0 0.1
2018-Apr-12 15:59N 37°42' E 120°08'0 0.0
2018-Apr-12 15:29N 37°42' E 120°08'0 0.0
2018-Apr-12 14:59N 37°42' E 120°08'0 0.1
2018-Apr-12 14:29N 37°42' E 120°08'0 0.1
2018-Apr-12 13:59N 37°42' E 120°08'0 0.1
2018-Apr-12 13:17N 37°42' E 120°08'0 0.0
2018-Apr-12 12:59N 37°42' E 120°08'0 0.0
2018-Apr-12 10:56N 37°42' E 120°08'0 0.0
2018-Apr-12 10:29N 37°42' E 120°08'0 0.0
2018-Apr-12 09:47N 37°42' E 120°08'0 0.0
2018-Apr-12 09:23N 37°42' E 120°08'0 0.0
2018-Apr-12 08:59N 37°42' E 120°08'0 0.0
2018-Apr-12 08:29N 37°42' E 120°08'0 0.0
2018-Apr-12 07:53N 37°42' E 120°08'0 0.0
2018-Apr-12 07:29N 37°42' E 120°08'0 0.0
2018-Apr-12 06:59N 37°42' E 120°08'0 0.0
2018-Apr-12 06:29N 37°42' E 120°08'0 0.0
2018-Apr-12 05:47N 37°42' E 120°08'0 0.0
2018-Apr-12 05:29N 37°42' E 120°08'0 0.0
2018-Apr-12 04:59N 37°42' E 120°08'0 0.0
2018-Apr-12 04:28N 37°42' E 120°08'0 0.0
2018-Apr-12 03:58N 37°42' E 120°08'0 0.2
2018-Apr-12 03:28N 37°42' E 120°08'0 0.0
2018-Apr-12 02:46N 37°42' E 120°08'0 0.1
2018-Apr-12 02:28N 37°42' E 120°08'0 0.0
2018-Apr-12 01:10N 37°42' E 120°08'0 0.1
2018-Apr-12 00:52N 37°42' E 120°08'0 0.0
2018-Apr-12 00:22N 37°42' E 120°08'0 0.1
2018-Apr-11 23:58N 37°42' E 120°08'0 0.0
2018-Apr-11 23:22N 37°42' E 120°08'0 0.0
2018-Apr-11 22:52N 37°42' E 120°08'0 0.1
2018-Apr-11 22:28N 37°42' E 120°08'0 0.1
2018-Apr-11 21:55N 37°42' E 120°08'0 0.1
2018-Apr-11 21:28N 37°42' E 120°08'0 0.5
2018-Apr-11 20:58N 37°43' E 120°08'0 0.0
2018-Apr-11 20:28N 37°43' E 120°08'0 0.0
2018-Apr-11 19:58N 37°43' E 120°08'0 0.0
2018-Apr-11 19:28N 37°43' E 120°08'0 0.0
2018-Apr-11 18:58N 37°43' E 120°08'0 0.0
2018-Apr-11 18:28N 37°43' E 120°08'0 0.0
2018-Apr-11 17:58N 37°43' E 120°08'0 0.0
2018-Apr-11 17:28N 37°43' E 120°08'0 0.0
2018-Apr-11 16:46N 37°43' E 120°08'0 0.0
2018-Apr-11 16:28N 37°43' E 120°08'0 0.0
2018-Apr-11 15:52N 37°43' E 120°08'0 0.1
2018-Apr-11 15:25N 37°43' E 120°08'0 0.0
2018-Apr-11 14:58N 37°43' E 120°08'0 0.0
2018-Apr-11 14:28N 37°43' E 120°08'0 0.0
2018-Apr-11 13:58N 37°42' E 120°08'0 0.0
2018-Apr-11 13:28N 37°42' E 120°08'0 0.0
2018-Apr-11 12:58N 37°42' E 120°08'0 0.0
2018-Apr-11 12:19N 37°43' E 120°08'0 0.1
2018-Apr-11 11:58N 37°43' E 120°08'0 0.0
2018-Apr-11 11:28N 37°43' E 120°08'0 0.2
2018-Apr-11 10:52N 37°42' E 120°08'0 0.0
2018-Apr-11 09:10N 37°42' E 120°08'0 0.0
2018-Apr-11 08:04N 37°42' E 120°08'0 0.0
2018-Apr-11 07:52N 37°42' E 120°08'0 0.0
2018-Apr-11 07:16N 37°42' E 120°08'0 0.0
2018-Apr-11 06:55N 37°42' E 120°08'0 0.0
2018-Apr-11 06:28N 37°42' E 120°08'0 0.0
2018-Apr-11 05:58N 37°42' E 120°08'0 0.1
2018-Apr-11 05:16N 37°42' E 120°09'0 0.2
2018-Apr-11 04:58N 37°42' E 120°08'0 0.0
2018-Apr-11 04:28N 37°42' E 120°08'0 0.0
2018-Apr-11 03:58N 37°42' E 120°08'0 0.2
2018-Apr-11 03:30N 37°42' E 120°09'3 6.1
2018-Apr-11 02:59N 37°40' E 120°12'4 8.6
2018-Apr-11 02:31N 37°38' E 120°16'2 0.7
2018-Apr-11 00:10N 37°39' E 120°18'0 0.0
2018-Apr-10 23:55N 37°39' E 120°18'0 0.0
2018-Apr-10 23:25N 37°39' E 120°18'  

Dump ship's entire track history